Terminal Aerodrome Forecast
Issued by NWS

Home | Current Version | Previous Version | Text Only | Print | Product List | Glossary Off
Versions: 1 2 3 4 5 6 7 8 9 10 11 12 13 14 15 16

000
FTUS43 KBIS 021100
TAFMOT
TAF
KMOT 021120Z 0212/0312 18006KT P6SM SKC
     FM021500 18012G24KT P6SM SKC
     FM030200 30022G30KT P6SM OVC040=

USA.gov is the U.S. government's official web portal to all federal, state and local government web resources and services.